sensor_id;sensor_type;location;lat;lon;timestamp;P1;durP1;ratioP1;P2;durP2;ratioP2
5682;SDS011;2864;49.220;8.654;2023-06-22T00:02:24;8.07;;;6.17;;
5682;SDS011;2864;49.220;8.654;2023-06-22T00:04:50;6.37;;;5.53;;
5682;SDS011;2864;49.220;8.654;2023-06-22T00:07:15;8.93;;;5.70;;
5682;SDS011;2864;49.220;8.654;2023-06-22T00:09:41;8.43;;;5.73;;
5682;SDS011;2864;49.220;8.654;2023-06-22T00:12:07;8.17;;;5.73;;
5682;SDS011;2864;49.220;8.654;2023-06-22T00:14:32;6.53;;;5.83;;
5682;SDS011;2864;49.220;8.654;2023-06-22T00:16:58;8.90;;;5.60;;
5682;SDS011;2864;49.220;8.654;2023-06-22T00:19:24;8.30;;;5.93;;
5682;SDS011;2864;49.220;8.654;2023-06-22T00:21:50;8.97;;;6.23;;
5682;SDS011;2864;49.220;8.654;2023-06-22T00:24:19;7.43;;;5.60;;
5682;SDS011;2864;49.220;8.654;2023-06-22T00:26:45;6.10;;;5.50;;
5682;SDS011;2864;49.220;8.654;2023-06-22T00:29:12;9.87;;;5.43;;
5682;SDS011;2864;49.220;8.654;2023-06-22T00:31:37;7.73;;;5.97;;
5682;SDS011;2864;49.220;8.654;2023-06-22T00:34:03;7.17;;;6.23;;
5682;SDS011;2864;49.220;8.654;2023-06-22T00:36:29;6.83;;;5.60;;
5682;SDS011;2864;49.220;8.654;2023-06-22T00:38:54;6.43;;;5.50;;
5682;SDS011;2864;49.220;8.654;2023-06-22T00:41:20;6.40;;;5.80;;
5682;SDS011;2864;49.220;8.654;2023-06-22T00:43:45;6.80;;;6.10;;
5682;SDS011;2864;49.220;8.654;2023-06-22T00:46:11;7.87;;;5.73;;
5682;SDS011;2864;49.220;8.654;2023-06-22T00:48:37;7.20;;;6.07;;
5682;SDS011;2864;49.220;8.654;2023-06-22T00:51:04;8.60;;;6.10;;
5682;SDS011;2864;49.220;8.654;2023-06-22T00:53:30;6.60;;;5.83;;
5682;SDS011;2864;49.220;8.654;2023-06-22T00:55:59;6.90;;;6.03;;
5682;SDS011;2864;49.220;8.654;2023-06-22T00:58:25;14.57;;;7.27;;
5682;SDS011;2864;49.220;8.654;2023-06-22T01:00:51;14.97;;;7.60;;
5682;SDS011;2864;49.220;8.654;2023-06-22T01:03:17;14.63;;;8.07;;
5682;SDS011;2864;49.220;8.654;2023-06-22T01:05:43;13.23;;;7.73;;
5682;SDS011;2864;49.220;8.654;2023-06-22T01:08:16;10.47;;;8.07;;
5682;SDS011;2864;49.220;8.654;2023-06-22T01:16:18;12.83;;;8.33;;
5682;SDS011;2864;49.220;8.654;2023-06-22T01:18:48;11.33;;;8.50;;
5682;SDS011;2864;49.220;8.654;2023-06-22T01:21:18;10.07;;;8.27;;
5682;SDS011;2864;49.220;8.654;2023-06-22T01:29:46;10.83;;;9.67;;
5682;SDS011;2864;49.220;8.654;2023-06-22T01:32:15;12.67;;;9.30;;
5682;SDS011;2864;49.220;8.654;2023-06-22T01:34:42;11.57;;;9.03;;
5682;SDS011;2864;49.220;8.654;2023-06-22T01:37:08;14.37;;;10.07;;
5682;SDS011;2864;49.220;8.654;2023-06-22T01:39:33;12.63;;;9.57;;
5682;SDS011;2864;49.220;8.654;2023-06-22T01:42:00;14.13;;;10.23;;
5682;SDS011;2864;49.220;8.654;2023-06-22T01:44:26;13.93;;;10.47;;
5682;SDS011;2864;49.220;8.654;2023-06-22T01:46:53;15.07;;;10.67;;
5682;SDS011;2864;49.220;8.654;2023-06-22T01:49:19;12.83;;;10.83;;
5682;SDS011;2864;49.220;8.654;2023-06-22T01:51:45;13.27;;;10.53;;
5682;SDS011;2864;49.220;8.654;2023-06-22T01:54:10;13.60;;;10.87;;
5682;SDS011;2864;49.220;8.654;2023-06-22T01:56:36;15.83;;;11.67;;
5682;SDS011;2864;49.220;8.654;2023-06-22T02:01:53;14.43;;;11.37;;
5682;SDS011;2864;49.220;8.654;2023-06-22T02:04:27;15.43;;;12.03;;
5682;SDS011;2864;49.220;8.654;2023-06-22T02:06:56;17.07;;;11.67;;
5682;SDS011;2864;49.220;8.654;2023-06-22T02:09:24;15.33;;;11.70;;
5682;SDS011;2864;49.220;8.654;2023-06-22T02:11:54;16.70;;;12.67;;
5682;SDS011;2864;49.220;8.654;2023-06-22T02:14:22;17.73;;;13.13;;
5682;SDS011;2864;49.220;8.654;2023-06-22T02:16:49;17.90;;;12.67;;
5682;SDS011;2864;49.220;8.654;2023-06-22T02:19:16;16.97;;;12.53;;
5682;SDS011;2864;49.220;8.654;2023-06-22T02:21:43;15.97;;;12.67;;
5682;SDS011;2864;49.220;8.654;2023-06-22T02:24:09;17.67;;;13.17;;
5682;SDS011;2864;49.220;8.654;2023-06-22T02:26:35;18.83;;;12.23;;
5682;SDS011;2864;49.220;8.654;2023-06-22T02:29:03;17.97;;;12.03;;
5682;SDS011;2864;49.220;8.654;2023-06-22T02:31:28;16.03;;;13.13;;
5682;SDS011;2864;49.220;8.654;2023-06-22T02:33:55;19.07;;;12.67;;
5682;SDS011;2864;49.220;8.654;2023-06-22T02:36:24;16.87;;;12.57;;
5682;SDS011;2864;49.220;8.654;2023-06-22T02:38:51;16.67;;;12.97;;
5682;SDS011;2864;49.220;8.654;2023-06-22T02:41:17;19.13;;;13.03;;
5682;SDS011;2864;49.220;8.654;2023-06-22T02:43:44;16.60;;;12.87;;
5682;SDS011;2864;49.220;8.654;2023-06-22T02:46:10;17.07;;;12.80;;
5682;SDS011;2864;49.220;8.654;2023-06-22T02:48:37;19.47;;;13.57;;
5682;SDS011;2864;49.220;8.654;2023-06-22T02:51:03;15.27;;;12.33;;
5682;SDS011;2864;49.220;8.654;2023-06-22T02:53:29;14.00;;;11.50;;
5682;SDS011;2864;49.220;8.654;2023-06-22T02:55:55;16.50;;;12.43;;
5682;SDS011;2864;49.220;8.654;2023-06-22T02:58:20;15.33;;;11.87;;
5682;SDS011;2864;49.220;8.654;2023-06-22T03:00:46;18.53;;;12.60;;
5682;SDS011;2864;49.220;8.654;2023-06-22T03:03:12;15.30;;;12.40;;
5682;SDS011;2864;49.220;8.654;2023-06-22T03:05:37;15.60;;;12.67;;
5682;SDS011;2864;49.220;8.654;2023-06-22T03:08:05;23.47;;;13.17;;
5682;SDS011;2864;49.220;8.654;2023-06-22T03:10:30;18.93;;;12.60;;
5682;SDS011;2864;49.220;8.654;2023-06-22T03:12:56;18.43;;;12.33;;
5682;SDS011;2864;49.220;8.654;2023-06-22T03:15:21;18.27;;;12.20;;
5682;SDS011;2864;49.220;8.654;2023-06-22T03:17:47;15.73;;;13.20;;
5682;SDS011;2864;49.220;8.654;2023-06-22T03:20:12;18.53;;;12.50;;
5682;SDS011;2864;49.220;8.654;2023-06-22T03:22:38;19.50;;;13.00;;
5682;SDS011;2864;49.220;8.654;2023-06-22T03:25:05;14.43;;;12.67;;
5682;SDS011;2864;49.220;8.654;2023-06-22T03:27:44;17.47;;;13.30;;
5682;SDS011;2864;49.220;8.654;2023-06-22T03:30:10;18.17;;;13.67;;
5682;SDS011;2864;49.220;8.654;2023-06-22T03:32:36;16.63;;;12.90;;
5682;SDS011;2864;49.220;8.654;2023-06-22T03:35:02;15.73;;;12.67;;
5682;SDS011;2864;49.220;8.654;2023-06-22T03:37:28;19.77;;;13.80;;
5682;SDS011;2864;49.220;8.654;2023-06-22T03:39:55;15.97;;;13.53;;
5682;SDS011;2864;49.220;8.654;2023-06-22T03:42:22;15.80;;;12.87;;
5682;SDS011;2864;49.220;8.654;2023-06-22T03:44:48;16.93;;;13.07;;
5682;SDS011;2864;49.220;8.654;2023-06-22T03:47:14;20.03;;;12.90;;
5682;SDS011;2864;49.220;8.654;2023-06-22T03:49:40;15.10;;;12.23;;
5682;SDS011;2864;49.220;8.654;2023-06-22T03:52:05;15.57;;;12.40;;
5682;SDS011;2864;49.220;8.654;2023-06-22T03:54:31;15.27;;;12.10;;
5682;SDS011;2864;49.220;8.654;2023-06-22T03:56:57;15.10;;;12.13;;
5682;SDS011;2864;49.220;8.654;2023-06-22T03:59:23;17.93;;;12.47;;
5682;SDS011;2864;49.220;8.654;2023-06-22T04:01:49;16.17;;;12.43;;
5682;SDS011;2864;49.220;8.654;2023-06-22T04:04:15;15.07;;;12.17;;
5682;SDS011;2864;49.220;8.654;2023-06-22T04:06:41;15.33;;;11.93;;
5682;SDS011;2864;49.220;8.654;2023-06-22T04:09:06;15.47;;;12.67;;
5682;SDS011;2864;49.220;8.654;2023-06-22T04:11:32;16.70;;;11.80;;
5682;SDS011;2864;49.220;8.654;2023-06-22T04:13:58;18.70;;;12.77;;
5682;SDS011;2864;49.220;8.654;2023-06-22T04:16:23;16.60;;;12.10;;
5682;SDS011;2864;49.220;8.654;2023-06-22T04:18:49;17.90;;;11.40;;
5682;SDS011;2864;49.220;8.654;2023-06-22T04:21:14;15.43;;;11.90;;
5682;SDS011;2864;49.220;8.654;2023-06-22T04:23:40;16.57;;;12.10;;
5682;SDS011;2864;49.220;8.654;2023-06-22T04:26:05;15.20;;;11.10;;
5682;SDS011;2864;49.220;8.654;2023-06-22T04:28:31;13.13;;;10.83;;
5682;SDS011;2864;49.220;8.654;2023-06-22T04:31:00;12.87;;;11.37;;
5682;SDS011;2864;49.220;8.654;2023-06-22T04:33:27;13.70;;;11.90;;
5682;SDS011;2864;49.220;8.654;2023-06-22T04:35:54;14.97;;;10.63;;
5682;SDS011;2864;49.220;8.654;2023-06-22T04:38:22;17.13;;;10.87;;
5682;SDS011;2864;49.220;8.654;2023-06-22T04:40:48;16.57;;;10.67;;
5682;SDS011;2864;49.220;8.654;2023-06-22T04:43:14;13.20;;;11.43;;
5682;SDS011;2864;49.220;8.654;2023-06-22T04:45:39;13.33;;;11.03;;
5682;SDS011;2864;49.220;8.654;2023-06-22T04:48:05;14.50;;;9.93;;
5682;SDS011;2864;49.220;8.654;2023-06-22T04:50:31;10.97;;;9.67;;
5682;SDS011;2864;49.220;8.654;2023-06-22T04:52:56;10.97;;;9.43;;
5682;SDS011;2864;49.220;8.654;2023-06-22T04:55:22;13.53;;;9.47;;
5682;SDS011;2864;49.220;8.654;2023-06-22T04:57:50;14.47;;;9.80;;
5682;SDS011;2864;49.220;8.654;2023-06-22T05:00:19;14.83;;;10.03;;
5682;SDS011;2864;49.220;8.654;2023-06-22T05:02:48;11.70;;;9.90;;
5682;SDS011;2864;49.220;8.654;2023-06-22T05:05:14;10.70;;;9.60;;
5682;SDS011;2864;49.220;8.654;2023-06-22T05:07:44;11.90;;;9.90;;
5682;SDS011;2864;49.220;8.654;2023-06-22T05:10:13;14.93;;;9.27;;
5682;SDS011;2864;49.220;8.654;2023-06-22T05:12:39;13.03;;;9.53;;
5682;SDS011;2864;49.220;8.654;2023-06-22T05:15:06;13.10;;;9.80;;
5682;SDS011;2864;49.220;8.654;2023-06-22T05:17:32;11.27;;;9.27;;
5682;SDS011;2864;49.220;8.654;2023-06-22T05:19:58;12.07;;;9.57;;
5682;SDS011;2864;49.220;8.654;2023-06-22T05:22:23;12.40;;;9.67;;
5682;SDS011;2864;49.220;8.654;2023-06-22T05:24:49;13.97;;;9.90;;
5682;SDS011;2864;49.220;8.654;2023-06-22T05:27:15;11.57;;;9.30;;
5682;SDS011;2864;49.220;8.654;2023-06-22T05:29:40;12.57;;;9.30;;
5682;SDS011;2864;49.220;8.654;2023-06-22T05:32:07;14.03;;;9.43;;
5682;SDS011;2864;49.220;8.654;2023-06-22T05:34:33;11.87;;;8.10;;
5682;SDS011;2864;49.220;8.654;2023-06-22T05:36:59;9.10;;;8.20;;
5682;SDS011;2864;49.220;8.654;2023-06-22T05:39:25;12.67;;;8.73;;
5682;SDS011;2864;49.220;8.654;2023-06-22T05:41:51;11.13;;;8.90;;
5682;SDS011;2864;49.220;8.654;2023-06-22T05:44:17;13.37;;;9.23;;
5682;SDS011;2864;49.220;8.654;2023-06-22T05:46:43;13.07;;;8.43;;
5682;SDS011;2864;49.220;8.654;2023-06-22T05:49:09;14.23;;;8.40;;
5682;SDS011;2864;49.220;8.654;2023-06-22T05:51:36;12.10;;;8.87;;
5682;SDS011;2864;49.220;8.654;2023-06-22T05:54:02;9.37;;;8.33;;
5682;SDS011;2864;49.220;8.654;2023-06-22T05:56:27;12.50;;;8.57;;
5682;SDS011;2864;49.220;8.654;2023-06-22T05:58:53;9.77;;;8.30;;
5682;SDS011;2864;49.220;8.654;2023-06-22T06:01:18;10.30;;;8.27;;
5682;SDS011;2864;49.220;8.654;2023-06-22T06:03:44;8.50;;;7.60;;
5682;SDS011;2864;49.220;8.654;2023-06-22T06:06:09;10.20;;;8.07;;
5682;SDS011;2864;49.220;8.654;2023-06-22T06:08:36;11.07;;;7.80;;
5682;SDS011;2864;49.220;8.654;2023-06-22T06:11:04;11.53;;;8.17;;
5682;SDS011;2864;49.220;8.654;2023-06-22T06:13:30;10.23;;;7.60;;
5682;SDS011;2864;49.220;8.654;2023-06-22T06:15:56;11.43;;;8.17;;
5682;SDS011;2864;49.220;8.654;2023-06-22T06:18:22;11.33;;;7.43;;
5682;SDS011;2864;49.220;8.654;2023-06-22T06:20:48;12.63;;;7.53;;
5682;SDS011;2864;49.220;8.654;2023-06-22T06:23:14;13.50;;;7.97;;
5682;SDS011;2864;49.220;8.654;2023-06-22T06:25:39;8.30;;;7.03;;
5682;SDS011;2864;49.220;8.654;2023-06-22T06:28:05;9.23;;;7.60;;
5682;SDS011;2864;49.220;8.654;2023-06-22T06:30:31;11.67;;;7.60;;
5682;SDS011;2864;49.220;8.654;2023-06-22T06:32:56;11.07;;;7.10;;
5682;SDS011;2864;49.220;8.654;2023-06-22T06:35:22;8.63;;;6.87;;
5682;SDS011;2864;49.220;8.654;2023-06-22T06:37:48;13.23;;;7.73;;
5682;SDS011;2864;49.220;8.654;2023-06-22T06:40:15;7.57;;;6.73;;
5682;SDS011;2864;49.220;8.654;2023-06-22T06:42:43;10.70;;;6.47;;
5682;SDS011;2864;49.220;8.654;2023-06-22T06:47:47;9.63;;;6.93;;
5682;SDS011;2864;49.220;8.654;2023-06-22T06:50:13;10.43;;;7.07;;
5682;SDS011;2864;49.220;8.654;2023-06-22T06:52:39;12.40;;;6.70;;
5682;SDS011;2864;49.220;8.654;2023-06-22T06:55:06;7.97;;;6.63;;
5682;SDS011;2864;49.220;8.654;2023-06-22T06:57:35;8.97;;;7.10;;
5682;SDS011;2864;49.220;8.654;2023-06-22T07:00:02;10.27;;;7.13;;
5682;SDS011;2864;49.220;8.654;2023-06-22T07:02:34;11.00;;;7.13;;
5682;SDS011;2864;49.220;8.654;2023-06-22T07:04:59;8.67;;;6.53;;
5682;SDS011;2864;49.220;8.654;2023-06-22T07:07:25;7.83;;;6.30;;
5682;SDS011;2864;49.220;8.654;2023-06-22T07:09:51;8.23;;;6.63;;
5682;SDS011;2864;49.220;8.654;2023-06-22T07:12:16;8.75;;;6.63;;
5682;SDS011;2864;49.220;8.654;2023-06-22T07:14:42;7.97;;;6.27;;
5682;SDS011;2864;49.220;8.654;2023-06-22T07:17:07;10.37;;;6.70;;
5682;SDS011;2864;49.220;8.654;2023-06-22T07:19:33;9.20;;;6.80;;
5682;SDS011;2864;49.220;8.654;2023-06-22T07:21:58;7.53;;;6.73;;
5682;SDS011;2864;49.220;8.654;2023-06-22T07:24:24;8.73;;;6.57;;
5682;SDS011;2864;49.220;8.654;2023-06-22T07:26:50;9.67;;;6.60;;
5682;SDS011;2864;49.220;8.654;2023-06-22T07:29:19;8.03;;;6.50;;
5682;SDS011;2864;49.220;8.654;2023-06-22T07:31:46;8.68;;;6.53;;
5682;SDS011;2864;49.220;8.654;2023-06-22T07:34:12;11.13;;;6.35;;
5682;SDS011;2864;49.220;8.654;2023-06-22T07:36:38;7.63;;;6.15;;
5682;SDS011;2864;49.220;8.654;2023-06-22T07:39:04;8.73;;;6.18;;
5682;SDS011;2864;49.220;8.654;2023-06-22T07:41:29;10.82;;;6.28;;
5682;SDS011;2864;49.220;8.654;2023-06-22T07:43:55;7.75;;;6.43;;
5682;SDS011;2864;49.220;8.654;2023-06-22T07:46:21;6.82;;;5.70;;
5682;SDS011;2864;49.220;8.654;2023-06-22T07:48:47;9.68;;;6.07;;
5682;SDS011;2864;49.220;8.654;2023-06-22T07:51:12;10.07;;;6.25;;
5682;SDS011;2864;49.220;8.654;2023-06-22T07:53:42;7.85;;;5.50;;
5682;SDS011;2864;49.220;8.654;2023-06-22T07:56:12;8.93;;;6.10;;
5682;SDS011;2864;49.220;8.654;2023-06-22T07:58:38;9.45;;;5.68;;
5682;SDS011;2864;49.220;8.654;2023-06-22T08:01:04;8.18;;;5.78;;
5682;SDS011;2864;49.220;8.654;2023-06-22T08:03:29;7.68;;;6.00;;
5682;SDS011;2864;49.220;8.654;2023-06-22T08:05:55;7.35;;;5.65;;
5682;SDS011;2864;49.220;8.654;2023-06-22T08:08:21;8.32;;;5.50;;
5682;SDS011;2864;49.220;8.654;2023-06-22T08:10:46;12.43;;;6.05;;
5682;SDS011;2864;49.220;8.654;2023-06-22T08:13:12;9.07;;;6.32;;
5682;SDS011;2864;49.220;8.654;2023-06-22T08:15:37;9.15;;;5.65;;
5682;SDS011;2864;49.220;8.654;2023-06-22T08:18:03;6.78;;;5.57;;
5682;SDS011;2864;49.220;8.654;2023-06-22T08:20:29;10.25;;;5.72;;
5682;SDS011;2864;49.220;8.654;2023-06-22T08:22:54;8.18;;;5.57;;
5682;SDS011;2864;49.220;8.654;2023-06-22T08:25:21;7.97;;;5.97;;
5682;SDS011;2864;49.220;8.654;2023-06-22T08:27:47;9.25;;;5.53;;
5682;SDS011;2864;49.220;8.654;2023-06-22T08:30:15;8.93;;;5.70;;
5682;SDS011;2864;49.220;8.654;2023-06-22T08:32:42;9.38;;;6.03;;
5682;SDS011;2864;49.220;8.654;2023-06-22T08:35:08;7.03;;;5.82;;
5682;SDS011;2864;49.220;8.654;2023-06-22T08:37:34;7.22;;;5.18;;
5682;SDS011;2864;49.220;8.654;2023-06-22T08:40:00;8.07;;;5.55;;
5682;SDS011;2864;49.220;8.654;2023-06-22T08:42:29;10.30;;;5.82;;
5682;SDS011;2864;49.220;8.654;2023-06-22T08:44:55;9.23;;;5.75;;
5682;SDS011;2864;49.220;8.654;2023-06-22T08:47:20;8.07;;;5.47;;
5682;SDS011;2864;49.220;8.654;2023-06-22T08:49:46;7.00;;;5.78;;
5682;SDS011;2864;49.220;8.654;2023-06-22T08:52:12;6.97;;;5.28;;
5682;SDS011;2864;49.220;8.654;2023-06-22T08:54:37;10.63;;;6.30;;
5682;SDS011;2864;49.220;8.654;2023-06-22T08:57:03;7.57;;;5.47;;
5682;SDS011;2864;49.220;8.654;2023-06-22T08:59:29;10.38;;;5.75;;
5682;SDS011;2864;49.220;8.654;2023-06-22T09:01:54;8.88;;;5.22;;
5682;SDS011;2864;49.220;8.654;2023-06-22T09:04:20;8.35;;;5.45;;
5682;SDS011;2864;49.220;8.654;2023-06-22T09:06:48;7.78;;;5.40;;
5682;SDS011;2864;49.220;8.654;2023-06-22T09:09:15;9.95;;;5.55;;
5682;SDS011;2864;49.220;8.654;2023-06-22T09:11:41;8.48;;;6.18;;
5682;SDS011;2864;49.220;8.654;2023-06-22T09:14:07;9.93;;;5.72;;
5682;SDS011;2864;49.220;8.654;2023-06-22T09:16:33;8.60;;;5.50;;
5682;SDS011;2864;49.220;8.654;2023-06-22T09:18:59;9.65;;;6.07;;
5682;SDS011;2864;49.220;8.654;2023-06-22T09:21:24;8.40;;;5.65;;
5682;SDS011;2864;49.220;8.654;2023-06-22T09:23:50;9.43;;;5.47;;
5682;SDS011;2864;49.220;8.654;2023-06-22T09:26:19;7.13;;;5.75;;
5682;SDS011;2864;49.220;8.654;2023-06-22T09:28:45;7.45;;;5.63;;
5682;SDS011;2864;49.220;8.654;2023-06-22T09:31:12;7.18;;;5.30;;
5682;SDS011;2864;49.220;8.654;2023-06-22T09:50:24;6.63;;;5.40;;
5682;SDS011;2864;49.220;8.654;2023-06-22T09:52:49;7.95;;;5.38;;
5682;SDS011;2864;49.220;8.654;2023-06-22T09:55:19;8.45;;;5.50;;
5682;SDS011;2864;49.220;8.654;2023-06-22T09:57:48;9.15;;;5.70;;
5682;SDS011;2864;49.220;8.654;2023-06-22T10:00:15;9.57;;;5.82;;
5682;SDS011;2864;49.220;8.654;2023-06-22T10:02:42;7.70;;;5.28;;
5682;SDS011;2864;49.220;8.654;2023-06-22T10:05:08;6.57;;;5.25;;
5682;SDS011;2864;49.220;8.654;2023-06-22T10:07:33;9.40;;;6.68;;
5682;SDS011;2864;49.220;8.654;2023-06-22T10:09:59;9.35;;;4.97;;
5682;SDS011;2864;49.220;8.654;2023-06-22T10:12:27;8.02;;;5.40;;
5682;SDS011;2864;49.220;8.654;2023-06-22T10:14:53;6.75;;;5.35;;
5682;SDS011;2864;49.220;8.654;2023-06-22T10:17:18;7.72;;;5.28;;
5682;SDS011;2864;49.220;8.654;2023-06-22T10:19:44;8.55;;;5.13;;
5682;SDS011;2864;49.220;8.654;2023-06-22T10:22:09;10.30;;;5.25;;
5682;SDS011;2864;49.220;8.654;2023-06-22T10:24:35;7.53;;;5.05;;
5682;SDS011;2864;49.220;8.654;2023-06-22T10:27:00;13.85;;;6.05;;
5682;SDS011;2864;49.220;8.654;2023-06-22T10:29:26;10.93;;;5.25;;
5682;SDS011;2864;49.220;8.654;2023-06-22T10:31:51;7.43;;;5.05;;
5682;SDS011;2864;49.220;8.654;2023-06-22T10:34:17;9.00;;;5.10;;
5682;SDS011;2864;49.220;8.654;2023-06-22T10:36:42;9.73;;;5.18;;
5682;SDS011;2864;49.220;8.654;2023-06-22T10:39:08;10.50;;;5.38;;
5682;SDS011;2864;49.220;8.654;2023-06-22T10:41:34;8.98;;;5.10;;
5682;SDS011;2864;49.220;8.654;2023-06-22T10:44:00;8.18;;;5.45;;
5682;SDS011;2864;49.220;8.654;2023-06-22T10:46:25;11.70;;;5.40;;
5682;SDS011;2864;49.220;8.654;2023-06-22T10:48:52;11.48;;;5.78;;
5682;SDS011;2864;49.220;8.654;2023-06-22T10:51:20;9.93;;;5.20;;
5682;SDS011;2864;49.220;8.654;2023-06-22T10:53:45;8.38;;;5.38;;
5682;SDS011;2864;49.220;8.654;2023-06-22T10:56:11;9.00;;;6.25;;
5682;SDS011;2864;49.220;8.654;2023-06-22T10:58:36;11.32;;;5.35;;
5682;SDS011;2864;49.220;8.654;2023-06-22T11:01:02;9.38;;;5.32;;
5682;SDS011;2864;49.220;8.654;2023-06-22T11:03:28;11.82;;;5.53;;
5682;SDS011;2864;49.220;8.654;2023-06-22T11:05:53;9.30;;;5.43;;
5682;SDS011;2864;49.220;8.654;2023-06-22T11:08:19;11.82;;;5.28;;
5682;SDS011;2864;49.220;8.654;2023-06-22T11:10:44;9.63;;;5.03;;
5682;SDS011;2864;49.220;8.654;2023-06-22T11:13:10;18.08;;;6.00;;
5682;SDS011;2864;49.220;8.654;2023-06-22T11:15:36;8.02;;;5.18;;
5682;SDS011;2864;49.220;8.654;2023-06-22T11:18:01;8.40;;;5.03;;
5682;SDS011;2864;49.220;8.654;2023-06-22T11:20:27;14.27;;;5.28;;
5682;SDS011;2864;49.220;8.654;2023-06-22T11:22:53;12.23;;;5.13;;
5682;SDS011;2864;49.220;8.654;2023-06-22T11:25:18;12.68;;;5.22;;
5682;SDS011;2864;49.220;8.654;2023-06-22T11:27:44;13.30;;;5.13;;
5682;SDS011;2864;49.220;8.654;2023-06-22T11:30:09;13.05;;;5.60;;
5682;SDS011;2864;49.220;8.654;2023-06-22T11:32:35;9.95;;;5.28;;
5682;SDS011;2864;49.220;8.654;2023-06-22T11:35:01;7.32;;;4.90;;
5682;SDS011;2864;49.220;8.654;2023-06-22T11:37:26;10.75;;;5.20;;
5682;SDS011;2864;49.220;8.654;2023-06-22T11:39:52;10.43;;;5.70;;
5682;SDS011;2864;49.220;8.654;2023-06-22T11:42:19;9.80;;;5.13;;
5682;SDS011;2864;49.220;8.654;2023-06-22T11:44:45;9.35;;;5.10;;
5682;SDS011;2864;49.220;8.654;2023-06-22T11:47:11;10.93;;;5.07;;
5682;SDS011;2864;49.220;8.654;2023-06-22T11:49:36;7.93;;;4.85;;
5682;SDS011;2864;49.220;8.654;2023-06-22T11:52:02;9.98;;;5.15;;
5682;SDS011;2864;49.220;8.654;2023-06-22T11:54:27;11.90;;;5.30;;
5682;SDS011;2864;49.220;8.654;2023-06-22T11:56:53;12.40;;;5.20;;
5682;SDS011;2864;49.220;8.654;2023-06-22T11:59:18;8.35;;;5.38;;
5682;SDS011;2864;49.220;8.654;2023-06-22T12:01:47;8.43;;;5.07;;
5682;SDS011;2864;49.220;8.654;2023-06-22T12:04:12;10.25;;;4.90;;
5682;SDS011;2864;49.220;8.654;2023-06-22T12:06:39;9.13;;;5.15;;
5682;SDS011;2864;49.220;8.654;2023-06-22T12:09:06;6.35;;;5.10;;
5682;SDS011;2864;49.220;8.654;2023-06-22T12:11:32;11.13;;;5.28;;
5682;SDS011;2864;49.220;8.654;2023-06-22T12:13:58;8.18;;;5.18;;
5682;SDS011;2864;49.220;8.654;2023-06-22T12:16:26;8.15;;;5.25;;
5682;SDS011;2864;49.220;8.654;2023-06-22T12:18:55;12.93;;;5.30;;
5682;SDS011;2864;49.220;8.654;2023-06-22T12:21:21;6.50;;;4.80;;
5682;SDS011;2864;49.220;8.654;2023-06-22T12:23:46;7.72;;;4.88;;
5682;SDS011;2864;49.220;8.654;2023-06-22T12:26:12;9.32;;;5.15;;
5682;SDS011;2864;49.220;8.654;2023-06-22T12:28:37;11.57;;;5.45;;
5682;SDS011;2864;49.220;8.654;2023-06-22T12:31:03;8.93;;;5.65;;
5682;SDS011;2864;49.220;8.654;2023-06-22T12:33:28;11.98;;;5.55;;
5682;SDS011;2864;49.220;8.654;2023-06-22T12:35:55;11.18;;;5.32;;
5682;SDS011;2864;49.220;8.654;2023-06-22T12:38:21;10.45;;;5.07;;
5682;SDS011;2864;49.220;8.654;2023-06-22T12:40:46;7.88;;;5.15;;
5682;SDS011;2864;49.220;8.654;2023-06-22T12:43:14;9.98;;;5.13;;
5682;SDS011;2864;49.220;8.654;2023-06-22T12:45:40;11.77;;;5.57;;
5682;SDS011;2864;49.220;8.654;2023-06-22T12:48:05;9.52;;;5.40;;
5682;SDS011;2864;49.220;8.654;2023-06-22T12:50:31;8.98;;;5.07;;
5682;SDS011;2864;49.220;8.654;2023-06-22T12:52:57;10.93;;;5.35;;
5682;SDS011;2864;49.220;8.654;2023-06-22T12:55:22;10.98;;;5.50;;
5682;SDS011;2864;49.220;8.654;2023-06-22T12:57:48;9.88;;;5.30;;
5682;SDS011;2864;49.220;8.654;2023-06-22T13:00:14;8.70;;;4.85;;
5682;SDS011;2864;49.220;8.654;2023-06-22T13:02:39;11.68;;;5.10;;
5682;SDS011;2864;49.220;8.654;2023-06-22T13:05:05;11.07;;;5.57;;
5682;SDS011;2864;49.220;8.654;2023-06-22T13:07:31;9.35;;;5.53;;
5682;SDS011;2864;49.220;8.654;2023-06-22T13:09:56;10.73;;;5.60;;
5682;SDS011;2864;49.220;8.654;2023-06-22T13:12:22;10.85;;;5.50;;
5682;SDS011;2864;49.220;8.654;2023-06-22T13:14:48;9.30;;;5.45;;
5682;SDS011;2864;49.220;8.654;2023-06-22T13:17:14;8.73;;;5.38;;
5682;SDS011;2864;49.220;8.654;2023-06-22T13:19:40;10.75;;;5.72;;
5682;SDS011;2864;49.220;8.654;2023-06-22T13:22:09;8.88;;;5.55;;
5682;SDS011;2864;49.220;8.654;2023-06-22T13:24:50;13.00;;;5.65;;
5682;SDS011;2864;49.220;8.654;2023-06-22T13:27:16;11.70;;;5.50;;
5682;SDS011;2864;49.220;8.654;2023-06-22T13:29:41;10.18;;;5.60;;
5682;SDS011;2864;49.220;8.654;2023-06-22T13:32:07;9.32;;;5.60;;
5682;SDS011;2864;49.220;8.654;2023-06-22T13:34:33;11.25;;;5.43;;
5682;SDS011;2864;49.220;8.654;2023-06-22T13:36:58;8.98;;;5.90;;
5682;SDS011;2864;49.220;8.654;2023-06-22T13:39:24;8.27;;;4.93;;
5682;SDS011;2864;49.220;8.654;2023-06-22T13:41:49;9.93;;;5.38;;
5682;SDS011;2864;49.220;8.654;2023-06-22T13:44:15;7.88;;;5.22;;
5682;SDS011;2864;49.220;8.654;2023-06-22T13:46:40;11.15;;;5.47;;
5682;SDS011;2864;49.220;8.654;2023-06-22T13:49:06;11.40;;;5.80;;
5682;SDS011;2864;49.220;8.654;2023-06-22T13:51:31;9.85;;;5.63;;
5682;SDS011;2864;49.220;8.654;2023-06-22T13:53:57;8.82;;;5.63;;
5682;SDS011;2864;49.220;8.654;2023-06-22T13:56:23;10.95;;;5.55;;
5682;SDS011;2864;49.220;8.654;2023-06-22T13:58:48;9.27;;;6.00;;
5682;SDS011;2864;49.220;8.654;2023-06-22T14:01:14;9.38;;;5.40;;
5682;SDS011;2864;49.220;8.654;2023-06-22T14:03:39;9.05;;;5.70;;
5682;SDS011;2864;49.220;8.654;2023-06-22T14:06:05;11.10;;;5.85;;
5682;SDS011;2864;49.220;8.654;2023-06-22T14:08:31;15.10;;;5.30;;
5682;SDS011;2864;49.220;8.654;2023-06-22T14:10:56;9.15;;;5.43;;
5682;SDS011;2864;49.220;8.654;2023-06-22T14:13:22;7.50;;;5.55;;
5682;SDS011;2864;49.220;8.654;2023-06-22T14:15:47;10.27;;;5.75;;
5682;SDS011;2864;49.220;8.654;2023-06-22T14:18:13;10.20;;;6.03;;
5682;SDS011;2864;49.220;8.654;2023-06-22T14:20:39;10.77;;;5.90;;
5682;SDS011;2864;49.220;8.654;2023-06-22T14:23:05;8.30;;;5.57;;
5682;SDS011;2864;49.220;8.654;2023-06-22T14:25:31;11.32;;;5.75;;
5682;SDS011;2864;49.220;8.654;2023-06-22T14:27:56;12.50;;;6.22;;
5682;SDS011;2864;49.220;8.654;2023-06-22T14:30:22;11.90;;;6.22;;
5682;SDS011;2864;49.220;8.654;2023-06-22T14:32:47;10.95;;;5.88;;
5682;SDS011;2864;49.220;8.654;2023-06-22T14:35:13;13.82;;;6.63;;
5682;SDS011;2864;49.220;8.654;2023-06-22T14:37:38;11.93;;;6.63;;
5682;SDS011;2864;49.220;8.654;2023-06-22T14:40:04;12.35;;;6.40;;
5682;SDS011;2864;49.220;8.654;2023-06-22T14:42:30;15.10;;;5.70;;
5682;SDS011;2864;49.220;8.654;2023-06-22T14:44:56;12.98;;;6.47;;
5682;SDS011;2864;49.220;8.654;2023-06-22T14:47:21;11.93;;;6.28;;
5682;SDS011;2864;49.220;8.654;2023-06-22T14:49:47;11.45;;;5.97;;
5682;SDS011;2864;49.220;8.654;2023-06-22T14:52:13;17.05;;;6.85;;
5682;SDS011;2864;49.220;8.654;2023-06-22T14:54:39;11.63;;;6.55;;
5682;SDS011;2864;49.220;8.654;2023-06-22T14:57:04;10.75;;;6.32;;
5682;SDS011;2864;49.220;8.654;2023-06-22T14:59:30;11.35;;;6.32;;
5682;SDS011;2864;49.220;8.654;2023-06-22T15:01:56;11.85;;;6.25;;
5682;SDS011;2864;49.220;8.654;2023-06-22T15:04:21;10.50;;;6.32;;
5682;SDS011;2864;49.220;8.654;2023-06-22T15:06:47;14.07;;;5.93;;
5682;SDS011;2864;49.220;8.654;2023-06-22T15:09:12;13.50;;;6.13;;
5682;SDS011;2864;49.220;8.654;2023-06-22T15:11:38;13.63;;;6.10;;
5682;SDS011;2864;49.220;8.654;2023-06-22T15:14:04;14.13;;;6.53;;
5682;SDS011;2864;49.220;8.654;2023-06-22T15:16:29;13.70;;;5.90;;
5682;SDS011;2864;49.220;8.654;2023-06-22T15:18:55;14.80;;;5.88;;
5682;SDS011;2864;49.220;8.654;2023-06-22T15:21:20;12.73;;;5.85;;
5682;SDS011;2864;49.220;8.654;2023-06-22T15:23:46;13.68;;;5.90;;
5682;SDS011;2864;49.220;8.654;2023-06-22T15:26:12;13.85;;;6.20;;
5682;SDS011;2864;49.220;8.654;2023-06-22T15:28:38;12.32;;;5.53;;
5682;SDS011;2864;49.220;8.654;2023-06-22T15:31:05;13.40;;;6.25;;
5682;SDS011;2864;49.220;8.654;2023-06-22T15:33:31;12.57;;;6.22;;